メインページ
METAR-TAF:

METAR-TAF

空港 :

アリス・スプリングス空港

アリススプリングス, オーストラリア

緯度: 23-48S, 経度: 133-53E, 海抜: 545m

現時点の気象観測

当レポートは33分前の14:00(UTC)に作成
東/北東の風 6kt
気温 16°C
湿度 39%
気圧 1020 hPa
視程10km以上

METAR: YBAS 251400Z AUTO 07006KT 9999 // NCD 16/02 Q1020 RF00.0/000.0

時間: 00:03 (14:33 UTC)

予報

当レポートは3時間33分前の11:00(UTC)に作成
予報は25日の 12時(UTC)から 26日の 12時(UTC)まで有効
の風 10kt
視程10km以上
1,500メートル以下は雲なし、積乱雲なし
25日の 1300時(UTC)から
西/北西の風 5kt
視程10km以上
1,500メートル以下は雲なし、積乱雲なし
26日の 0000時(UTC)から
北東の風 12kt
視程10km以上
1,500メートル以下は雲なし、積乱雲なし

TAF: YBAS 251100Z 2512/2612 09010KT CAVOK FM251300 30005KT CAVOK FM260000 04012KT CAVOK

4,000以上の空港の気象観測と天気予報(METAR報とTAF報)

利用可能な観測所は地図上に黄色い丸と赤い丸で示す。

丸の上にカーソルを重ねると観測所名を参照できる。

次にクリックすると気象観測と天気予報を参照できる。

マップの切り替え:黒色「×」印の緑ボタンをクリックして拡大、「-」印の緑ボタンをクリックして縮小、緑色の三角印をクリックして隣りの地図に切り替え


METAR-TAF: